createdAt,value
2019-04-30T00:01:16.793Z,0.60
2019-04-30T00:03:42.620Z,0.82
2019-04-30T00:06:16.065Z,0.90
2019-04-30T00:08:49.357Z,1.10
2019-04-30T00:11:22.758Z,0.88
2019-04-30T00:13:58.858Z,0.88
2019-04-30T00:16:35.640Z,0.95
2019-04-30T00:19:06.286Z,0.90
2019-04-30T00:21:41.254Z,0.98
2019-04-30T00:24:15.891Z,1.10
2019-04-30T00:26:52.382Z,0.98
2019-04-30T00:29:30.176Z,0.72
2019-04-30T00:32:04.421Z,1.17
2019-04-30T00:34:39.412Z,0.88
2019-04-30T00:37:13.818Z,0.78
2019-04-30T00:39:51.021Z,0.80
2019-04-30T00:42:26.781Z,0.80
2019-04-30T00:44:59.651Z,1.00
2019-04-30T00:47:35.160Z,0.93
2019-04-30T00:50:08.765Z,1.10
2019-04-30T00:52:45.676Z,1.20
2019-04-30T00:55:18.888Z,1.12
2019-04-30T00:57:52.191Z,0.90
2019-04-30T01:00:29.655Z,1.30
2019-04-30T01:03:05.906Z,1.10
2019-04-30T01:05:39.641Z,0.95
2019-04-30T01:08:12.202Z,0.93
2019-04-30T01:10:46.032Z,1.17
2019-04-30T01:13:19.595Z,0.95
2019-04-30T01:15:52.924Z,1.02
2019-04-30T01:18:28.585Z,1.00
2019-04-30T01:21:02.922Z,1.02
2019-04-30T01:23:36.386Z,1.22
2019-04-30T01:26:09.869Z,1.20
2019-04-30T01:28:43.267Z,1.10
2019-04-30T01:31:16.780Z,1.57
2019-04-30T01:33:50.183Z,1.20
2019-04-30T01:36:23.587Z,1.12
2019-04-30T01:38:56.988Z,1.30
2019-04-30T01:41:31.388Z,1.20
2019-04-30T01:44:08.752Z,1.50
2019-04-30T01:46:43.318Z,1.52
2019-04-30T01:49:15.067Z,1.20
2019-04-30T01:51:48.706Z,1.50
2019-04-30T01:54:24.355Z,1.47
2019-04-30T01:56:59.418Z,1.70
2019-04-30T01:59:33.034Z,2.02
2019-04-30T02:02:06.452Z,1.90
2019-04-30T02:04:40.137Z,1.80
2019-04-30T02:07:13.555Z,2.40
2019-04-30T02:09:48.824Z,1.98
2019-04-30T02:12:22.332Z,2.40
2019-04-30T02:14:56.094Z,2.20
2019-04-30T02:17:29.442Z,2.35
2019-04-30T02:20:04.388Z,2.30
2019-04-30T02:22:38.978Z,3.05
2019-04-30T02:25:14.248Z,2.77
2019-04-30T02:27:49.237Z,2.75
2019-04-30T02:30:22.586Z,2.92
2019-04-30T02:32:56.004Z,2.83
2019-04-30T02:35:29.478Z,2.65
2019-04-30T02:38:02.880Z,3.45
2019-04-30T02:40:36.253Z,3.50
2019-04-30T02:43:09.587Z,4.17
2019-04-30T02:45:42.882Z,3.60
2019-04-30T02:48:16.310Z,3.65
2019-04-30T02:50:49.778Z,3.72
2019-04-30T02:53:50.547Z,4.25
2019-04-30T02:56:26.672Z,4.75
2019-04-30T02:59:00.451Z,4.25
2019-04-30T03:01:34.718Z,4.08
2019-04-30T03:04:09.920Z,4.40
2019-04-30T03:06:43.050Z,4.25
2019-04-30T03:09:16.428Z,4.90
2019-04-30T03:11:50.394Z,4.50
2019-04-30T03:14:23.815Z,4.80
2019-04-30T03:16:59.888Z,4.28
2019-04-30T03:19:32.219Z,4.72
2019-04-30T03:22:05.700Z,5.47
2019-04-30T03:24:39.817Z,5.03
2019-04-30T03:27:14.051Z,5.65
2019-04-30T03:29:50.017Z,4.75
2019-04-30T03:32:23.141Z,5.03
2019-04-30T03:34:56.687Z,4.67
2019-04-30T03:37:29.986Z,4.53
2019-04-30T03:40:06.169Z,5.03
2019-04-30T03:42:41.250Z,4.55
2019-04-30T03:45:14.670Z,5.12
2019-04-30T03:47:50.471Z,5.00
2019-04-30T03:50:23.105Z,4.40
2019-04-30T03:52:56.428Z,4.35
2019-04-30T03:55:30.034Z,5.25
2019-04-30T03:58:03.624Z,4.83
2019-04-30T04:00:36.988Z,4.65
2019-04-30T04:03:10.341Z,5.25
2019-04-30T04:05:43.819Z,4.90
2019-04-30T04:08:19.359Z,5.42
2019-04-30T04:10:52.943Z,5.12
2019-04-30T04:13:26.515Z,4.92
2019-04-30T04:16:00.140Z,4.67
2019-04-30T04:18:33.545Z,5.90
2019-04-30T04:21:16.037Z,5.22
2019-04-30T04:23:44.863Z,5.80
2019-04-30T04:26:20.232Z,6.45
2019-04-30T04:28:53.917Z,5.47
2019-04-30T04:31:29.702Z,6.87
2019-04-30T04:34:02.292Z,5.15
2019-04-30T04:36:35.638Z,5.03
2019-04-30T04:39:09.842Z,5.72
2019-04-30T04:41:44.287Z,5.10
2019-04-30T04:44:20.315Z,5.62
2019-04-30T04:46:52.758Z,5.53
2019-04-30T04:49:26.069Z,5.50
2019-04-30T04:51:59.479Z,5.97
2019-04-30T04:54:32.772Z,6.45
2019-04-30T04:57:14.923Z,5.83
2019-04-30T04:59:42.611Z,6.87
2019-04-30T05:02:16.252Z,5.95
2019-04-30T05:04:49.423Z,6.10
2019-04-30T05:07:22.814Z,6.83
2019-04-30T05:09:56.237Z,6.45
2019-04-30T05:12:29.915Z,7.25
2019-04-30T05:15:04.433Z,6.20
2019-04-30T05:17:39.789Z,6.83
2019-04-30T05:20:12.877Z,5.80
2019-04-30T05:22:46.182Z,5.35
2019-04-30T05:25:19.587Z,5.90
2019-04-30T05:27:52.976Z,6.67
2019-04-30T05:30:26.295Z,6.78
2019-04-30T05:32:59.610Z,6.65
2019-04-30T05:35:32.929Z,7.50
2019-04-30T05:38:06.250Z,6.83
2019-04-30T05:40:42.555Z,7.30
2019-04-30T05:43:16.032Z,6.12
2019-04-30T05:45:49.517Z,7.28
2019-04-30T05:48:24.419Z,6.08
2019-04-30T05:50:59.174Z,6.42
2019-04-30T05:53:32.597Z,7.65
2019-04-30T05:56:05.947Z,5.47
2019-04-30T05:58:39.740Z,6.30
2019-04-30T06:01:13.279Z,6.40
2019-04-30T06:03:48.312Z,6.75
2019-04-30T06:06:21.792Z,7.03
2019-04-30T06:09:04.645Z,6.67
2019-04-30T06:11:30.338Z,7.80
2019-04-30T06:14:03.684Z,6.72
2019-04-30T06:16:36.995Z,7.28
2019-04-30T06:19:10.553Z,5.47
2019-04-30T06:21:43.890Z,6.40
2019-04-30T06:24:18.797Z,6.03
2019-04-30T06:26:52.231Z,6.58
2019-04-30T06:29:25.709Z,5.97
2019-04-30T06:31:59.186Z,6.58
2019-04-30T06:34:32.509Z,8.20
2019-04-30T06:37:05.919Z,6.40
2019-04-30T06:39:39.417Z,7.72
2019-04-30T06:42:13.165Z,6.22
2019-04-30T06:44:49.435Z,6.60
2019-04-30T06:47:32.692Z,6.20
2019-04-30T06:49:58.740Z,6.87
2019-04-30T06:52:32.550Z,6.67
2019-04-30T06:55:05.883Z,6.42
2019-04-30T06:57:39.207Z,7.15
2019-04-30T07:00:12.536Z,7.30
2019-04-30T07:02:45.873Z,6.28
2019-04-30T07:05:19.194Z,6.12
2019-04-30T07:07:53.338Z,7.15
2019-04-30T07:10:29.349Z,6.30
2019-04-30T07:13:02.639Z,6.08
2019-04-30T07:15:36.116Z,6.50
2019-04-30T07:18:09.559Z,5.95
2019-04-30T07:20:42.941Z,6.00
2019-04-30T07:23:18.803Z,6.55
2019-04-30T07:25:52.327Z,6.80
2019-04-30T07:28:42.668Z,5.65
2019-04-30T07:31:13.332Z,7.03
2019-04-30T07:33:35.767Z,6.15
2019-04-30T07:36:09.749Z,6.05
2019-04-30T07:41:19.877Z,5.28
2019-04-30T07:43:53.662Z,6.33
2019-04-30T07:46:27.190Z,5.35
2019-04-30T07:49:00.615Z,5.75
2019-04-30T07:51:37.861Z,5.45
2019-04-30T07:54:09.329Z,5.42
2019-04-30T07:56:42.735Z,5.80
2019-04-30T07:59:16.096Z,6.30
2019-04-30T08:02:03.166Z,5.80
2019-04-30T08:04:24.417Z,5.05
2019-04-30T08:06:59.689Z,5.70
2019-04-30T08:09:35.036Z,5.50
2019-04-30T08:09:41.467Z,5.30
2019-04-30T08:12:09.247Z,5.20
2019-04-30T08:14:43.230Z,7.17
2019-04-30T08:17:18.743Z,5.55
2019-04-30T08:19:51.848Z,5.90
2019-04-30T08:22:25.179Z,5.75
2019-04-30T08:24:58.748Z,5.58
2019-04-30T08:27:32.255Z,5.85
2019-04-30T08:30:20.699Z,5.12
2019-04-30T08:32:42.347Z,5.30
2019-04-30T08:35:15.640Z,5.33
2019-04-30T08:37:49.656Z,5.55
2019-04-30T08:40:23.214Z,5.80
2019-04-30T08:42:59.501Z,5.05
2019-04-30T08:45:34.802Z,5.08
2019-04-30T08:48:09.081Z,5.17
2019-04-30T08:50:42.526Z,5.35
2019-04-30T08:53:26.450Z,5.97
2019-04-30T08:55:50.853Z,4.92
2019-04-30T08:58:24.205Z,6.05
2019-04-30T09:00:58.807Z,5.20
2019-04-30T09:03:32.479Z,5.30
2019-04-30T09:06:05.796Z,4.80
2019-04-30T09:08:40.023Z,4.75
2019-04-30T09:11:22.416Z,4.53
2019-04-30T09:13:48.887Z,5.72
2019-04-30T09:16:22.296Z,5.35
2019-04-30T09:18:57.252Z,5.58
2019-04-30T09:21:30.548Z,5.00
2019-04-30T09:24:03.897Z,5.25
2019-04-30T09:26:39.040Z,5.67
2019-04-30T09:29:12.309Z,5.20
2019-04-30T09:31:45.633Z,5.53
2019-04-30T09:34:21.024Z,5.03
2019-04-30T09:36:54.756Z,4.78
2019-04-30T09:39:29.614Z,4.87
2019-04-30T09:42:03.065Z,4.85
2019-04-30T09:44:36.414Z,5.40
2019-04-30T09:47:11.345Z,5.20
2019-04-30T09:49:44.683Z,4.83
2019-04-30T09:52:19.298Z,5.72
2019-04-30T09:54:54.014Z,4.25
2019-04-30T09:57:28.980Z,5.25
2019-04-30T10:00:04.067Z,5.42
2019-04-30T10:02:38.888Z,5.10
2019-04-30T10:05:13.184Z,5.83
2019-04-30T10:07:49.303Z,4.80
2019-04-30T10:10:22.864Z,6.10
2019-04-30T10:12:56.250Z,5.20
2019-04-30T10:15:29.659Z,6.08
2019-04-30T10:18:03.240Z,5.00
2019-04-30T10:20:39.393Z,5.85
2019-04-30T10:23:12.694Z,5.10
2019-04-30T10:25:47.137Z,5.17
2019-04-30T10:28:20.427Z,4.95
2019-04-30T10:30:53.797Z,6.25
2019-04-30T10:33:28.716Z,4.80
2019-04-30T10:36:02.185Z,5.20
2019-04-30T10:38:35.548Z,4.92
2019-04-30T10:41:09.050Z,4.85
2019-04-30T10:43:42.478Z,6.00
2019-04-30T10:46:15.985Z,5.25
2019-04-30T10:48:49.643Z,6.00
2019-04-30T10:51:23.003Z,4.92
2019-04-30T10:53:56.357Z,4.83
2019-04-30T10:56:29.775Z,6.00
2019-04-30T10:59:03.342Z,6.33
2019-04-30T11:01:36.755Z,5.47
2019-04-30T11:04:10.103Z,6.30
2019-04-30T11:06:43.692Z,5.92
2019-04-30T11:09:16.997Z,5.72
2019-04-30T11:11:50.519Z,4.90
2019-04-30T11:14:23.895Z,6.08
2019-04-30T11:16:59.275Z,6.33
2019-04-30T11:19:32.478Z,5.90
2019-04-30T11:22:06.081Z,6.70
2019-04-30T11:24:55.521Z,5.78
2019-04-30T11:27:15.521Z,5.50
2019-04-30T11:29:49.706Z,5.05
2019-04-30T11:32:23.400Z,5.72
2019-04-30T11:34:56.832Z,5.60
2019-04-30T11:37:30.172Z,5.92
2019-04-30T11:40:08.109Z,5.65
2019-04-30T11:42:41.616Z,6.05
2019-04-30T11:45:19.465Z,5.33
2019-04-30T11:47:53.748Z,5.30
2019-04-30T11:50:29.977Z,5.45
2019-04-30T11:53:19.531Z,5.20
2019-04-30T11:55:39.030Z,5.47
2019-04-30T11:58:21.678Z,5.20
2019-04-30T12:00:50.829Z,5.53
2019-04-30T12:03:25.798Z,6.77
2019-04-30T12:05:59.220Z,5.75
2019-04-30T12:08:32.606Z,7.08
2019-04-30T12:11:05.943Z,6.00
2019-04-30T12:13:39.248Z,5.70
2019-04-30T12:16:12.619Z,6.05
2019-04-30T12:18:45.992Z,5.62
2019-04-30T12:21:19.322Z,5.60
2019-04-30T12:23:52.617Z,6.03
2019-04-30T12:26:25.957Z,6.03
2019-04-30T12:28:59.280Z,5.75
2019-04-30T12:31:32.648Z,6.15
2019-04-30T12:34:05.955Z,6.15
2019-04-30T12:36:39.290Z,5.90
2019-04-30T12:39:12.475Z,5.83
2019-04-30T12:41:45.826Z,6.55
2019-04-30T12:44:20.763Z,5.87
2019-04-30T12:46:54.153Z,6.12
2019-04-30T12:49:28.867Z,6.22
2019-04-30T12:52:02.779Z,6.17
2019-04-30T12:54:36.072Z,6.25
2019-04-30T12:57:11.197Z,5.78
2019-04-30T12:59:44.633Z,5.72
2019-04-30T13:02:19.117Z,5.45
2019-04-30T13:04:52.546Z,7.27
2019-04-30T13:07:26.493Z,6.10
2019-04-30T13:10:01.963Z,6.08
2019-04-30T13:12:36.637Z,5.92
2019-04-30T13:15:10.363Z,5.78
2019-04-30T13:17:43.730Z,6.17
2019-04-30T13:20:21.269Z,6.08
2019-04-30T13:22:52.160Z,5.92
2019-04-30T13:25:32.451Z,5.78
2019-04-30T13:28:02.483Z,5.67
2019-04-30T13:30:35.804Z,6.50
2019-04-30T13:33:09.537Z,5.20
2019-04-30T13:35:42.908Z,6.03
2019-04-30T13:38:16.421Z,6.47
2019-04-30T13:40:49.727Z,6.05
2019-04-30T13:43:23.056Z,7.30
2019-04-30T13:45:56.468Z,5.90
2019-04-30T13:48:31.459Z,6.00
2019-04-30T13:51:04.894Z,6.08
2019-04-30T13:53:39.770Z,5.78
2019-04-30T13:56:13.110Z,6.72
2019-04-30T13:58:47.081Z,6.17
2019-04-30T14:01:21.505Z,6.65
2019-04-30T14:03:54.877Z,5.90
2019-04-30T14:06:28.966Z,5.75
2019-04-30T14:09:03.939Z,6.20
2019-04-30T14:11:37.746Z,5.25
2019-04-30T14:14:11.303Z,6.17
2019-04-30T14:16:44.650Z,5.40
2019-04-30T14:19:19.557Z,5.55
2019-04-30T14:21:54.078Z,6.12
2019-04-30T14:24:27.600Z,6.00
2019-04-30T14:27:01.321Z,5.55
2019-04-30T14:29:34.689Z,6.95
2019-04-30T14:32:08.680Z,6.20
2019-04-30T14:34:42.476Z,6.03
2019-04-30T14:37:15.777Z,5.72
2019-04-30T14:39:49.579Z,6.77
2019-04-30T14:42:25.007Z,6.50
2019-04-30T14:44:59.804Z,6.20
2019-04-30T14:47:34.439Z,6.17
2019-04-30T14:50:09.895Z,5.55
2019-04-30T14:52:43.466Z,5.72
2019-04-30T14:55:18.655Z,5.67
2019-04-30T14:57:51.991Z,5.95
2019-04-30T15:00:25.331Z,5.78
2019-04-30T15:02:58.667Z,5.47
2019-04-30T15:05:38.862Z,6.72
2019-04-30T15:08:08.631Z,6.05
2019-04-30T15:10:42.033Z,6.30
2019-04-30T15:13:15.369Z,5.78
2019-04-30T15:15:49.189Z,5.78
2019-04-30T15:18:22.930Z,5.60
2019-04-30T15:20:56.429Z,5.80
2019-04-30T15:23:29.801Z,5.90
2019-04-30T15:26:03.171Z,5.70
2019-04-30T15:28:36.491Z,6.50
2019-04-30T15:31:09.849Z,5.70
2019-04-30T15:33:43.184Z,5.53
2019-04-30T15:36:16.536Z,5.97
2019-04-30T15:38:50.320Z,5.62
2019-04-30T15:41:23.720Z,5.65
2019-04-30T15:43:57.016Z,6.65
2019-04-30T15:46:31.423Z,5.33
2019-04-30T15:49:04.797Z,5.67
2019-04-30T15:51:38.198Z,5.40
2019-04-30T15:54:11.502Z,5.45
2019-04-30T15:56:44.843Z,5.25
2019-04-30T15:59:18.961Z,5.30
2019-04-30T16:01:52.570Z,6.05
2019-04-30T16:04:28.542Z,5.67
2019-04-30T16:07:02.008Z,5.62
2019-04-30T16:09:35.302Z,5.97
2019-04-30T16:12:08.632Z,5.33
2019-04-30T16:14:43.517Z,5.28
2019-04-30T16:17:20.415Z,5.50
2019-04-30T16:19:52.022Z,6.12
2019-04-30T16:22:25.363Z,5.90
2019-04-30T16:25:00.437Z,5.17
2019-04-30T16:27:34.080Z,6.20
2019-04-30T16:30:09.409Z,5.60
2019-04-30T16:32:42.895Z,6.75
2019-04-30T16:35:16.366Z,5.67
2019-04-30T16:37:49.756Z,6.80
2019-04-30T16:40:23.111Z,5.90
2019-04-30T16:42:56.422Z,7.10
2019-04-30T16:45:30.021Z,7.97
2019-04-30T16:48:03.331Z,7.25
2019-04-30T16:50:36.717Z,6.58
2019-04-30T16:53:10.087Z,6.45
2019-04-30T16:55:45.260Z,6.22
2019-04-30T16:58:20.231Z,6.03
2019-04-30T17:00:54.290Z,6.85
2019-04-30T17:03:28.722Z,6.35
2019-04-30T17:06:02.053Z,7.40
2019-04-30T17:08:35.717Z,7.50
2019-04-30T17:11:09.101Z,5.75
2019-04-30T17:13:42.413Z,7.42
2019-04-30T17:16:16.098Z,5.92
2019-04-30T17:18:50.198Z,7.25
2019-04-30T17:21:23.631Z,7.35
2019-04-30T17:23:58.711Z,6.97
2019-04-30T17:26:32.010Z,7.85
2019-04-30T17:29:05.582Z,6.62
2019-04-30T17:31:38.951Z,8.00
2019-04-30T17:34:12.318Z,6.62
2019-04-30T17:36:45.888Z,6.40
2019-04-30T17:39:19.264Z,6.42
2019-04-30T17:41:53.042Z,7.40
2019-04-30T17:44:26.419Z,5.70
2019-04-30T17:47:01.477Z,7.05
2019-04-30T17:49:34.918Z,5.80
2019-04-30T17:52:09.842Z,6.35
2019-04-30T17:54:43.192Z,5.80
2019-04-30T17:57:29.627Z,6.97
2019-04-30T17:59:51.688Z,6.87
2019-04-30T18:02:25.258Z,5.90
2019-04-30T18:04:59.718Z,6.37
2019-04-30T18:07:33.089Z,6.15
2019-04-30T18:10:08.741Z,7.15
2019-04-30T18:12:42.227Z,5.47
2019-04-30T18:15:15.570Z,5.72
2019-04-30T18:17:48.895Z,5.50
2019-04-30T18:20:22.289Z,6.30
2019-04-30T18:22:55.723Z,6.25
2019-04-30T18:25:29.058Z,6.55
2019-04-30T18:28:02.371Z,5.85
2019-04-30T18:30:35.973Z,6.20
2019-04-30T18:33:09.984Z,6.10
2019-04-30T18:35:43.723Z,5.67
2019-04-30T18:38:18.233Z,5.42
2019-04-30T18:40:51.621Z,6.78
2019-04-30T18:43:25.037Z,5.95
2019-04-30T18:46:00.591Z,5.67
2019-04-30T18:48:33.704Z,5.20
2019-04-30T18:51:23.484Z,6.83
2019-04-30T18:53:42.706Z,5.58
2019-04-30T18:56:15.885Z,5.87
2019-04-30T18:58:49.207Z,5.55
2019-04-30T19:01:22.564Z,5.80
2019-04-30T19:03:56.248Z,5.30
2019-04-30T19:06:29.833Z,5.53
2019-04-30T19:09:04.484Z,5.53
2019-04-30T19:11:39.545Z,6.57
2019-04-30T19:14:12.879Z,5.62
2019-04-30T19:16:46.257Z,5.72
2019-04-30T19:19:19.643Z,5.25
2019-04-30T19:21:53.984Z,5.40
2019-04-30T19:24:29.219Z,6.00
2019-04-30T19:27:02.576Z,5.83
2019-04-30T19:29:37.029Z,5.83
2019-04-30T19:32:10.690Z,5.80
2019-04-30T19:34:44.023Z,5.30
2019-04-30T19:37:19.590Z,4.85
2019-04-30T19:39:52.564Z,5.42
2019-04-30T19:42:26.222Z,5.78
2019-04-30T19:45:09.085Z,5.30
2019-04-30T19:47:35.238Z,6.00
2019-04-30T19:50:09.395Z,6.08
2019-04-30T19:52:43.250Z,6.25
2019-04-30T19:55:20.468Z,6.33
2019-04-30T19:57:52.405Z,5.40
2019-04-30T20:00:26.172Z,5.75
2019-04-30T20:03:00.064Z,5.87
2019-04-30T20:05:33.559Z,4.85
2019-04-30T20:08:10.808Z,5.58
2019-04-30T20:10:42.252Z,5.62
2019-04-30T20:13:27.843Z,5.50
2019-04-30T20:15:50.822Z,6.58
2019-04-30T20:18:24.178Z,5.03
2019-04-30T20:21:00.848Z,6.33
2019-04-30T20:23:32.604Z,5.33
2019-04-30T20:26:05.255Z,5.65
2019-04-30T20:28:42.251Z,6.00
2019-04-30T20:31:13.979Z,5.92
2019-04-30T20:33:48.942Z,5.50
2019-04-30T20:36:22.804Z,6.07
2019-04-30T20:38:57.236Z,5.28
2019-04-30T20:41:30.589Z,5.50
2019-04-30T20:44:04.014Z,4.85
2019-04-30T20:46:43.475Z,5.40
2019-04-30T20:49:19.218Z,6.00
2019-04-30T20:51:55.902Z,5.12
2019-04-30T20:54:29.076Z,5.50
2019-04-30T20:57:02.593Z,5.58
2019-04-30T20:59:36.038Z,5.65
2019-04-30T21:02:09.376Z,5.33
2019-04-30T21:04:42.726Z,5.72
2019-04-30T21:07:18.946Z,5.22
2019-04-30T21:09:52.406Z,5.72
2019-04-30T21:12:25.798Z,5.60
2019-04-30T21:14:59.624Z,5.85
2019-04-30T21:17:33.061Z,5.03
2019-04-30T21:20:06.370Z,6.40
2019-04-30T21:22:41.158Z,5.45
2019-04-30T21:25:15.789Z,5.17
2019-04-30T21:27:49.995Z,5.47
2019-04-30T21:30:23.387Z,4.83
2019-04-30T21:32:59.297Z,5.58
2019-04-30T21:35:32.515Z,5.28
2019-04-30T21:38:05.865Z,5.10
2019-04-30T21:40:39.533Z,5.58
2019-04-30T21:43:13.001Z,5.17
2019-04-30T21:45:49.366Z,5.28
2019-04-30T21:48:23.868Z,4.83
2019-04-30T21:50:59.200Z,5.55
2019-04-30T21:53:32.214Z,5.30
2019-04-30T21:56:05.527Z,5.30
2019-04-30T21:58:39.334Z,5.20
2019-04-30T22:01:12.735Z,5.35
2019-04-30T22:03:48.616Z,5.17
2019-04-30T22:06:21.937Z,4.62
2019-04-30T22:08:55.294Z,5.00
2019-04-30T22:11:29.590Z,4.40
2019-04-30T22:14:03.226Z,4.70
2019-04-30T22:16:36.523Z,4.70
2019-04-30T22:19:09.881Z,4.90
2019-04-30T22:21:43.171Z,5.20
2019-04-30T22:24:16.506Z,5.00
2019-04-30T22:26:49.819Z,4.95
2019-04-30T22:29:23.154Z,5.75
2019-04-30T22:31:56.625Z,4.62
2019-04-30T22:34:29.948Z,5.67
2019-04-30T22:37:03.281Z,5.12
2019-04-30T22:39:36.613Z,5.80
2019-04-30T22:42:29.581Z,5.03
2019-04-30T22:45:02.789Z,5.50
2019-04-30T22:47:36.360Z,4.72
2019-04-30T22:50:09.767Z,4.65
2019-04-30T22:52:43.589Z,4.50
2019-04-30T22:55:17.084Z,4.70
2019-04-30T22:57:50.383Z,4.90
2019-04-30T23:00:23.845Z,4.47
2019-04-30T23:02:57.243Z,4.75
2019-04-30T23:05:30.822Z,5.03
2019-04-30T23:08:04.145Z,4.58
2019-04-30T23:10:37.501Z,4.58
2019-04-30T23:13:10.807Z,4.75
2019-04-30T23:15:44.157Z,4.90
2019-04-30T23:18:18.580Z,5.72
2019-04-30T23:20:51.943Z,4.50
2019-04-30T23:23:25.508Z,5.10
2019-04-30T23:25:58.873Z,4.75
2019-04-30T23:28:32.347Z,5.60
2019-04-30T23:31:05.742Z,4.92
2019-04-30T23:33:39.144Z,4.70
2019-04-30T23:36:12.718Z,4.87
2019-04-30T23:38:46.048Z,4.95
2019-04-30T23:41:19.503Z,4.53
2019-04-30T23:46:28.808Z,4.58
2019-04-30T23:49:02.169Z,4.35
2019-04-30T23:51:35.757Z,4.58
2019-04-30T23:54:09.077Z,5.30
2019-04-30T23:56:42.443Z,5.30
2019-04-30T23:59:15.757Z,4.87
